עמוד ראשי
תמונות לווין תחזית 15-יוםאקליםתחזית ים סופות טרופיות ברק שדות תעופהשאלות נפוצות עלון אודות
מזג אוויר : אירופה אפריקה אמריקה הצפונית אמריקה הדרומית אסיה אוסטרליה-אוקיאניה אחר
שפות איש קשר

שטוטגרט, גרמניה

Echterdingen

קו רוחב: 48-41N, קו אורך: 009-13E, גובה: 396 m


METAR: EDDS 010720Z 31005KT 9999 FEW010 BKN017 12/10 Q1020 NOSIG
short-TAF: מיושן (51030 שעות)
long-TAF: EDDS 010500Z 0106/0206 31005KT 9999 BKN008 BECMG 0106/0109 BKN015

זמן: 09:28 (07:28 UTC)

תצפית מזג אוויר נוכחית

הדו"ח נערך לפני 7 דקות, בשעה 07:20 UTC  
רוח 05 קשר מכיוון צפון-מערב
טמפרטורת 12°C
לחות 88%
לחץ 1020 hPa
ראות 10 km או יותר
מעט עננים בגובה 1000 ft
עננים בינוניים בגובה 1700 ft

שינוי יחידות

תחזית

הדו"ח נערך לפני 2 שעות ו 1 דקות, בשעה 05:27 UTC  
תחזית בתוקף מ 01 ב 06 UTC עד 02 ב 06 UTC
רוח 05 קשר מכיוון צפון-מערב
ראות 10 km או יותר
עננים בינוניים בגובה 800 ft
יעשה מ
01 ב 06 UTC עד 01 ב 09 UTC
עננים בינוניים בגובה 1500 ft
המידע באתר זה מותנה של תניית פטור
מזג אוויר : אירופה אפריקה אמריקה הצפונית אמריקה הדרומית אסיה אוסטרליה-אוקיאניה אחר
תמונות לווין תחזית 15-יוםאקליםתחזית ים סופות טרופיות ברק שדות תעופהשאלות נפוצות שפות איש קשר עלון אודות